METAR Data
IDs: Format: Raw Decoded Include TAF

Data at: 1900 UTC 26 Sep 2021

METAR for:KHKY (Hickory Rgnl, NC, US)
Text:KHKY 261853Z 24009KT 10SM CLR 24/07 A3011 RMK AO2 SLP178 T02440072
Temperature: 24.4°C ( 76°F)
Dewpoint: 7.2°C ( 45°F) [RH = 33%]
Pressure (altimeter):30.11 inches Hg (1019.7 mb) [Sea level pressure: 1017.8 mb]
Winds:from the WSW (240 degrees) at 10 MPH (9 knots; 4.6 m/s)
Visibility:10 or more sm (16+ km)
Ceiling:at least 12,000 feet AGL
Clouds:sky clear below 12,000 feet AGL

TAF for:KHKY (Hickory Rgnl, NC, US) issued at 1745 UTC 26 Sep 2021
Text:KHKY 261745Z 2618/2718 25004KT P6SM SKC
Forecast period:1800 UTC 26 September 2021 to 0000 UTC 27 September 2021
Forecast type:FROM: standard forecast or significant change
Winds:from the WSW (250 degrees) at 5 MPH (4 knots; 2.1 m/s)
Visibility:6 or more sm (10+ km)
Ceiling:at least 12,000 feet AGL
Clouds:clear skies
Text:FM270000 00000KT P6SM SKC
Forecast period:0000 to 1800 UTC 27 September 2021
Forecast type:FROM: standard forecast or significant change
Winds:calm
Visibility:6 or more sm (10+ km)
Ceiling:at least 12,000 feet AGL
Clouds:clear skies